createdAt,value
2023-01-25T04:05:35.403Z,102337.28
2023-01-25T04:08:04.111Z,102335.10
2023-01-25T04:10:37.691Z,102340.16
2023-01-25T04:13:06.738Z,102347.77
2023-01-25T04:15:35.702Z,102350.40
2023-01-25T04:18:10.231Z,102348.30
2023-01-25T04:20:38.522Z,102344.23
2023-01-25T04:23:07.395Z,102345.49
2023-01-25T04:25:38.187Z,102344.43
2023-01-25T04:28:08.943Z,102339.95
2023-01-25T04:30:37.489Z,102343.35
2023-01-25T04:33:06.964Z,102339.13
2023-01-25T04:35:35.966Z,102340.73
2023-01-25T04:38:05.565Z,102341.78
2023-01-25T04:40:40.203Z,102340.58
2023-01-25T04:43:08.607Z,102338.80
2023-01-25T04:45:37.139Z,102340.78
2023-01-25T04:48:10.591Z,102341.27
2023-01-25T04:50:40.519Z,102336.66
2023-01-25T04:53:11.200Z,102338.38
2023-01-25T04:55:39.682Z,102337.94
2023-01-25T04:58:09.474Z,102332.94
2023-01-25T05:00:38.800Z,102336.77
2023-01-25T05:03:07.113Z,102340.27
2023-01-25T05:05:37.186Z,102344.17
2023-01-25T05:08:09.877Z,102342.35
2023-01-25T05:10:38.786Z,102341.88
2023-01-25T05:13:31.514Z,102342.77
2023-01-25T05:16:10.016Z,102349.02
2023-01-25T05:18:48.415Z,102350.82
2023-01-25T05:21:39.463Z,102352.70
2023-01-25T05:24:08.037Z,102353.81
2023-01-25T05:26:55.696Z,102357.05
2023-01-25T05:29:24.082Z,102357.58
2023-01-25T05:32:01.308Z,102357.59
2023-01-25T05:34:31.037Z,102358.27
2023-01-25T05:36:59.774Z,102352.02
2023-01-25T05:39:28.167Z,102349.38
2023-01-25T05:41:56.502Z,102348.25
2023-01-25T05:44:24.869Z,102344.39
2023-01-25T05:46:54.145Z,102344.48
2023-01-25T05:49:22.929Z,102339.92
2023-01-25T05:51:51.155Z,102338.18
2023-01-25T05:54:20.915Z,102337.14
2023-01-25T05:56:55.698Z,102338.55
2023-01-25T05:59:24.881Z,102335.58
2023-01-25T06:01:53.136Z,102331.65
2023-01-25T06:04:21.435Z,102334.63
2023-01-25T06:06:49.914Z,102336.95
2023-01-25T06:09:18.996Z,102339.67
2023-01-25T06:11:47.649Z,102341.95
2023-01-25T06:14:15.937Z,102342.33
2023-01-25T06:16:44.177Z,102345.38
2023-01-25T06:19:35.292Z,102347.94
2023-01-25T06:22:10.184Z,102344.89
2023-01-25T06:24:38.447Z,102343.10
2023-01-25T06:27:06.994Z,102339.70
2023-01-25T06:29:36.127Z,102343.05
2023-01-25T06:32:04.625Z,102342.70
2023-01-25T06:34:35.143Z,102336.73
2023-01-25T06:37:03.712Z,102337.31
2023-01-25T06:39:32.099Z,102340.58
2023-01-25T06:42:02.818Z,102342.13
2023-01-25T06:44:31.963Z,102334.77
2023-01-25T06:47:00.240Z,102335.54
2023-01-25T06:49:30.198Z,102340.45
2023-01-25T06:51:58.485Z,102339.63
2023-01-25T06:54:26.599Z,102340.50
2023-01-25T06:56:54.784Z,102336.64
2023-01-25T06:59:23.178Z,102333.42
2023-01-25T07:01:51.429Z,102334.09
2023-01-25T07:04:21.124Z,102332.53
2023-01-25T07:06:49.911Z,102332.92
2023-01-25T07:09:24.024Z,102335.11
2023-01-25T07:11:52.836Z,102332.70
2023-01-25T07:14:21.056Z,102330.27
2023-01-25T07:16:50.642Z,102328.60
2023-01-25T07:19:20.950Z,102325.79
2023-01-25T07:21:49.203Z,102326.14
2023-01-25T07:24:18.409Z,102322.62
2023-01-25T07:26:47.825Z,102318.95
2023-01-25T07:29:16.319Z,102323.37
2023-01-25T07:31:44.655Z,102324.02
2023-01-25T07:34:13.480Z,102328.98
2023-01-25T07:36:41.864Z,102327.20
2023-01-25T07:39:10.766Z,102321.60
2023-01-25T07:41:39.748Z,102322.91
2023-01-25T07:44:12.056Z,102322.92
2023-01-25T07:46:45.347Z,102324.15
2023-01-25T07:49:13.716Z,102321.83
2023-01-25T07:51:42.783Z,102321.81
2023-01-25T07:54:11.944Z,102320.55
2023-01-25T12:49:16.713Z,102145.23
2023-01-25T12:51:45.175Z,102140.71
2023-01-25T12:54:25.517Z,102143.91
2023-01-25T12:57:02.545Z,102140.27
2023-01-25T12:59:36.492Z,102138.64
2023-01-25T13:02:20.187Z,102138.63
2023-01-25T13:05:02.801Z,102137.98
2023-01-25T13:07:54.899Z,102139.30
2023-01-25T13:10:36.812Z,102139.64
2023-01-25T13:13:28.819Z,102136.89
2023-01-25T13:15:57.194Z,102133.39
2023-01-25T13:18:28.777Z,102133.55
2023-01-25T13:21:00.979Z,102131.38
2023-01-25T13:23:32.840Z,102130.50
2023-01-25T13:26:26.401Z,102132.92
2023-01-25T13:28:56.035Z,102131.77
2023-01-25T13:31:51.496Z,102131.60
2023-01-25T13:34:37.446Z,102123.42
2023-01-25T13:37:14.737Z,102124.52
2023-01-25T13:39:56.046Z,102120.54
2023-01-25T13:42:24.455Z,102111.38
2023-01-25T13:44:57.744Z,102110.36
2023-01-25T13:47:29.499Z,102106.67
2023-01-25T13:50:21.667Z,102100.80
2023-01-25T13:53:02.026Z,102097.68
2023-01-25T13:55:38.528Z,102097.05
2023-01-25T13:58:30.162Z,102099.92
2023-01-25T14:01:31.538Z,102102.64
2023-01-25T14:04:02.324Z,102105.78
2023-01-25T14:06:36.412Z,102099.77
2023-01-25T14:09:07.957Z,102097.67
2023-01-25T14:11:40.127Z,102094.09
2023-01-25T14:14:17.555Z,102089.79
2023-01-25T14:16:46.007Z,102090.30
2023-01-25T14:19:24.634Z,102088.73
2023-01-25T14:22:26.386Z,102092.14
2023-01-25T14:25:14.899Z,102093.55
2023-01-25T14:27:43.417Z,102093.85
2023-01-25T14:30:31.002Z,102089.83
2023-01-25T14:33:04.672Z,102094.33
2023-01-25T14:35:42.862Z,102095.83
2023-01-25T14:38:22.514Z,102092.69
2023-01-25T14:40:51.557Z,102097.52
2023-01-25T14:43:19.836Z,102098.25
2023-01-25T14:45:48.275Z,102094.94
2023-01-25T14:48:45.346Z,102087.17
2023-01-25T14:51:28.433Z,102091.69
2023-01-25T14:54:02.435Z,102090.73
2023-01-25T14:57:05.316Z,102088.58
2023-01-25T14:59:37.152Z,102084.64
2023-01-25T15:02:17.183Z,102087.54
2023-01-25T15:05:11.128Z,102083.70
2023-01-25T15:07:51.091Z,102083.25
2023-01-25T15:10:29.735Z,102083.02
2023-01-25T15:13:14.243Z,102077.59
2023-01-25T15:15:58.991Z,102079.25
2023-01-25T15:18:46.980Z,102081.86
2023-01-25T15:21:28.461Z,102083.23
2023-01-25T15:23:58.518Z,102083.76
2023-01-25T15:26:28.767Z,102081.11
2023-01-25T15:28:58.833Z,102074.73
2023-01-25T15:31:28.405Z,102079.48
2023-01-25T15:34:00.021Z,102080.44
2023-01-25T15:36:29.100Z,102073.60
2023-01-25T15:38:58.277Z,102069.16
2023-01-25T15:41:27.316Z,102070.21
2023-01-25T15:43:55.729Z,102067.24
2023-01-25T15:46:28.539Z,102066.92
2023-01-25T15:48:56.730Z,102064.44
2023-01-25T15:51:26.152Z,102061.27
2023-01-25T15:53:54.468Z,102056.16
2023-01-25T15:56:25.092Z,102057.34
2023-01-25T15:58:55.925Z,102056.58
2023-01-25T16:01:27.568Z,102056.30
2023-01-25T16:04:15.920Z,102056.73
2023-01-25T16:06:50.285Z,102051.52
2023-01-25T16:09:29.775Z,102055.23
2023-01-25T16:11:59.992Z,102053.52
2023-01-25T16:14:30.436Z,102055.97
2023-01-25T16:17:02.873Z,102049.34
2023-01-25T16:19:32.255Z,102047.65
2023-01-25T16:22:01.850Z,102052.73
2023-01-25T16:24:31.581Z,102052.52
2023-01-25T16:27:01.017Z,102050.91
2023-01-25T16:29:29.363Z,102051.61
2023-01-25T16:31:58.112Z,102051.89
2023-01-25T16:34:26.659Z,102050.66
2023-01-25T16:36:55.285Z,102043.77
2023-01-25T16:39:24.976Z,102043.77
2023-01-25T16:41:53.860Z,102045.13
2023-01-25T16:44:22.835Z,102044.41
2023-01-25T16:46:51.333Z,102046.77
2023-01-25T16:49:27.708Z,102047.66
2023-01-25T16:52:00.146Z,102042.48
2023-01-25T16:54:28.494Z,102044.21
2023-01-25T16:56:56.851Z,102045.73
2023-01-25T16:59:25.231Z,102039.24
2023-01-25T17:01:54.556Z,102044.73
2023-01-25T17:04:22.731Z,102044.99
2023-01-25T17:06:53.616Z,102046.48
2023-01-25T17:09:25.514Z,102046.11
2023-01-25T17:11:54.720Z,102045.03
2023-01-25T17:14:22.954Z,102045.98
2023-01-25T17:16:53.835Z,102045.11
2023-01-25T17:19:22.417Z,102045.70
2023-01-25T17:21:50.966Z,102043.13
2023-01-25T17:24:21.240Z,102039.23
2023-01-25T17:26:49.781Z,102037.96
2023-01-25T17:29:18.268Z,102035.86
2023-01-25T17:31:46.884Z,102034.69
2023-01-25T17:34:18.374Z,102031.25
2023-01-25T17:36:46.817Z,102019.55
2023-01-25T17:39:16.264Z,102018.59
2023-01-25T17:41:48.543Z,102022.50
2023-01-25T17:44:21.295Z,102024.44
2023-01-25T17:46:49.715Z,102019.36
2023-01-25T17:49:18.463Z,102021.38
2023-01-25T17:51:46.685Z,102025.77
2023-01-25T17:54:21.469Z,102021.45
2023-01-25T17:56:49.764Z,102017.52
2023-01-25T17:59:18.604Z,102017.10
2023-01-25T18:01:46.932Z,102016.90
2023-01-25T18:04:17.869Z,102017.09
2023-01-25T18:06:46.125Z,102017.36
2023-01-25T18:09:14.480Z,102022.39
2023-01-25T18:11:42.812Z,102025.54
2023-01-25T18:14:17.099Z,102025.69
2023-01-25T18:16:46.058Z,102030.55
2023-01-25T18:19:17.299Z,102026.86
2023-01-25T18:21:46.983Z,102027.66
2023-01-25T18:24:42.883Z,102029.21
2023-01-25T18:27:23.191Z,102034.53
2023-01-25T18:30:02.804Z,102037.73
2023-01-25T18:32:39.663Z,102034.34
2023-01-25T18:35:16.286Z,102036.73
2023-01-25T18:37:46.903Z,102036.85
2023-01-25T18:40:19.915Z,102033.40
2023-01-25T18:42:53.031Z,102036.58
2023-01-25T18:45:26.063Z,102038.02
2023-01-25T18:47:57.212Z,102039.17
2023-01-25T18:50:37.330Z,102036.14
2023-01-25T18:53:11.165Z,102031.55
2023-01-25T18:55:42.895Z,102039.43
2023-01-25T18:58:16.373Z,102036.53
2023-01-25T19:01:04.220Z,102037.23
2023-01-25T19:03:42.165Z,102033.84
2023-01-25T19:20:12.291Z,102030.44
2023-01-25T19:22:41.253Z,102027.14
2023-01-25T19:25:10.547Z,102021.61
2023-01-25T19:27:39.675Z,102021.33
2023-01-25T19:30:11.639Z,102018.48
2023-01-25T19:32:40.159Z,102014.45
2023-01-25T19:35:09.049Z,102019.00
2023-01-25T19:37:37.771Z,102018.73
2023-01-25T19:40:09.485Z,102013.52
2023-01-25T19:42:38.712Z,102012.52
2023-01-25T19:45:08.165Z,102010.02
2023-01-25T19:47:37.531Z,102013.13
2023-01-25T19:50:06.567Z,102011.09
2023-01-25T19:52:36.238Z,102007.54
2023-01-25T19:55:04.981Z,102007.27
2023-01-25T19:57:34.654Z,102003.18
2023-01-25T20:00:04.592Z,102003.05
2023-01-25T20:02:34.917Z,102006.19
2023-01-25T20:05:08.922Z,101998.60
2023-01-25T20:07:38.058Z,101995.80
2023-01-25T20:10:07.343Z,101989.23
2023-01-25T20:12:35.757Z,101988.63
2023-01-25T20:15:04.274Z,101991.02
2023-01-25T20:17:35.232Z,101990.73
2023-01-25T20:20:08.798Z,101988.70
2023-01-25T20:22:38.512Z,101992.30
2023-01-25T20:25:08.507Z,101991.80
2023-01-25T20:27:37.048Z,101992.88
2023-01-25T20:30:06.251Z,101996.60
2023-01-25T20:32:36.351Z,101995.30
2023-01-25T20:35:06.885Z,101998.84
2023-01-25T20:37:35.233Z,102001.76
2023-01-25T20:40:03.783Z,101999.77
2023-01-25T20:42:34.506Z,102002.24
2023-01-25T20:45:02.719Z,102000.73
2023-01-25T20:47:32.216Z,101997.88
2023-01-25T20:50:01.072Z,101994.09
2023-01-25T20:52:30.566Z,101994.61
2023-01-25T20:55:00.342Z,101993.50
2023-01-25T20:57:29.480Z,101992.02
2023-01-25T20:59:57.626Z,101989.67
2023-01-25T21:02:25.812Z,101986.73
2023-01-25T21:04:55.575Z,101982.59
2023-01-25T21:07:24.067Z,101983.94
2023-01-25T21:09:52.689Z,101981.64
2023-01-25T21:12:22.642Z,101978.55
2023-01-25T21:14:52.045Z,101974.82
2023-01-25T21:17:22.508Z,101976.27
2023-01-25T21:19:50.956Z,101976.70
2023-01-25T21:22:19.684Z,101972.98
2023-01-25T21:24:48.050Z,101968.65
2023-01-25T21:27:18.299Z,101975.77
2023-01-25T21:29:46.435Z,101970.83
2023-01-25T21:32:15.605Z,101972.66
2023-01-25T21:34:44.093Z,101972.42
2023-01-25T21:37:13.500Z,101966.46
2023-01-25T21:39:44.011Z,101957.46
2023-01-25T21:42:13.345Z,101956.49
2023-01-25T21:45:00.192Z,101954.25
2023-01-25T21:47:31.447Z,101948.05
2023-01-25T21:50:18.349Z,101947.52
2023-01-25T21:52:46.877Z,101939.23
2023-01-25T21:55:15.147Z,101940.02
2023-01-25T22:10:34.956Z,101932.50
2023-01-25T22:13:03.497Z,101927.80
2023-01-25T22:15:31.973Z,101924.48
2023-01-25T22:18:02.997Z,101920.60
2023-01-25T22:20:31.894Z,101919.39
2023-01-25T22:23:00.096Z,101920.74
2023-01-25T22:25:28.948Z,101923.72
2023-01-25T22:28:00.399Z,101923.10
2023-01-25T22:30:28.693Z,101922.03
2023-01-25T22:32:57.238Z,101918.84
2023-01-25T22:35:25.500Z,101913.88
2023-01-25T22:37:54.231Z,101912.61
2023-01-25T22:40:24.138Z,101909.05
2023-01-25T22:42:52.539Z,101904.48
2023-01-25T22:45:22.549Z,101900.55
2023-01-25T22:47:51.328Z,101898.56
2023-01-25T22:50:19.556Z,101901.54
2023-01-25T22:52:49.224Z,101893.47
2023-01-25T22:55:17.521Z,101894.61
2023-01-25T22:57:46.322Z,101895.60
2023-01-25T23:00:15.284Z,101891.45
2023-01-25T23:02:46.469Z,101888.70
2023-01-25T23:05:15.360Z,101885.56
2023-01-25T23:07:43.590Z,101884.54
2023-01-25T23:10:12.559Z,101885.38
2023-01-25T23:12:41.787Z,101887.09
2023-01-25T23:15:15.549Z,101879.98
2023-01-25T23:18:02.817Z,101877.58
2023-01-25T23:20:31.329Z,101881.28
2023-01-25T23:23:00.677Z,101886.13
2023-01-25T23:25:29.987Z,101883.54
2023-01-25T23:27:58.143Z,101883.23
2023-01-25T23:30:26.811Z,101879.50
2023-01-25T23:32:55.002Z,101876.95
2023-01-25T23:35:23.193Z,101874.36
2023-01-25T23:37:51.447Z,101869.60
2023-01-25T23:40:19.625Z,101870.14
2023-01-25T23:42:47.916Z,101871.73
2023-01-25T23:45:39.625Z,101870.75
2023-01-25T23:48:23.458Z,101871.00
2023-01-25T23:50:54.987Z,101869.70
2023-01-25T23:53:25.203Z,101866.57
2023-01-25T23:55:54.548Z,101862.20
2023-01-25T23:58:23.309Z,101860.81
